createdAt,value
2022-10-08T00:01:09.833Z,97.80
2022-10-08T00:03:40.250Z,97.90
2022-10-08T00:06:13.487Z,97.80
2022-10-08T00:08:43.665Z,97.80
2022-10-08T00:11:14.429Z,98.00
2022-10-08T00:13:42.841Z,98.00
2022-10-08T00:16:16.334Z,98.20
2022-10-08T00:18:46.190Z,98.10
2022-10-08T00:21:25.936Z,98.20
2022-10-08T00:23:53.718Z,98.20
2022-10-08T00:26:25.843Z,98.10
2022-10-08T00:28:56.055Z,98.10
2022-10-08T00:31:28.767Z,98.20
2022-10-08T00:33:57.952Z,98.20
2022-10-08T00:36:27.994Z,98.10
2022-10-08T00:38:59.571Z,97.90
2022-10-08T00:41:29.647Z,97.90
2022-10-08T00:43:59.600Z,98.00
2022-10-08T00:46:47.914Z,98.00
2022-10-08T00:49:22.688Z,97.90
2022-10-08T00:51:54.533Z,97.80
2022-10-08T00:54:23.191Z,97.70
2022-10-08T00:56:53.307Z,97.70
2022-10-08T00:59:20.951Z,97.70
2022-10-08T01:01:47.984Z,97.70
2022-10-08T01:04:16.067Z,97.90
2022-10-08T01:06:43.106Z,98.10
2022-10-08T01:09:18.846Z,98.20
2022-10-08T01:11:47.134Z,98.60
2022-10-08T01:14:29.979Z,98.50
2022-10-08T01:17:25.265Z,98.60
2022-10-08T01:20:04.958Z,98.70
2022-10-08T01:22:47.042Z,98.90
2022-10-08T01:25:33.477Z,98.90
2022-10-08T01:28:33.182Z,99.00
2022-10-08T01:31:37.595Z,98.90
2022-10-08T01:34:12.872Z,99.00
2022-10-08T01:36:47.855Z,99.30
2022-10-08T01:39:18.895Z,99.60
2022-10-08T01:41:58.438Z,99.90
2022-10-08T01:44:47.183Z,99.90
2022-10-08T01:47:18.686Z,99.80
2022-10-08T01:49:58.505Z,99.90
2022-10-08T01:52:38.443Z,99.90
2022-10-08T01:55:13.549Z,99.90
2022-10-08T01:57:41.618Z,99.90
2022-10-08T02:00:11.562Z,99.90
2022-10-08T02:02:42.705Z,99.90
2022-10-08T02:05:11.184Z,99.90
2022-10-08T02:07:43.276Z,99.90
2022-10-08T02:10:21.200Z,99.90
2022-10-08T02:12:48.271Z,99.90
2022-10-08T02:15:46.562Z,99.90
2022-10-08T02:18:20.582Z,99.90
2022-10-08T02:20:59.082Z,99.90
2022-10-08T02:23:50.564Z,99.90
2022-10-08T02:26:26.927Z,99.90
2022-10-08T02:28:58.043Z,99.90
2022-10-08T02:31:52.907Z,99.90
2022-10-08T02:34:31.989Z,99.90
2022-10-08T02:37:04.435Z,99.90
2022-10-08T02:39:36.903Z,99.90
2022-10-08T02:42:08.311Z,99.90
2022-10-08T02:44:39.055Z,99.90
2022-10-08T02:47:10.121Z,99.90
2022-10-08T02:49:41.347Z,99.90
2022-10-08T02:52:10.453Z,99.90
2022-10-08T02:54:40.129Z,99.90
2022-10-08T02:57:18.807Z,99.90
2022-10-08T02:59:46.749Z,99.90
2022-10-08T03:02:21.912Z,99.90
2022-10-08T03:04:56.578Z,99.90
2022-10-08T03:07:26.460Z,99.90
2022-10-08T03:09:55.402Z,99.90
2022-10-08T03:12:22.575Z,99.90
2022-10-08T03:14:50.265Z,99.90
2022-10-08T03:17:24.232Z,99.90
2022-10-08T03:19:51.742Z,99.90
2022-10-08T03:22:19.373Z,99.90
2022-10-08T03:24:46.568Z,99.90
2022-10-08T03:27:13.964Z,99.90
2022-10-08T03:29:41.078Z,99.90
2022-10-08T03:32:08.564Z,99.90
2022-10-08T03:34:35.441Z,99.90
2022-10-08T03:37:02.339Z,99.90
2022-10-08T03:39:29.217Z,99.90
2022-10-08T03:41:56.119Z,99.90
2022-10-08T03:44:22.914Z,99.90
2022-10-08T03:46:49.791Z,99.90
2022-10-08T03:49:16.697Z,99.90
2022-10-08T03:51:43.548Z,99.90
2022-10-08T03:54:10.394Z,99.90
2022-10-08T03:56:37.388Z,99.90
2022-10-08T03:59:04.483Z,99.90
2022-10-08T04:01:31.393Z,99.90
2022-10-08T04:03:58.338Z,99.90
2022-10-08T04:06:25.368Z,99.90
2022-10-08T04:08:53.671Z,99.90
2022-10-08T04:11:20.733Z,99.90
2022-10-08T04:13:47.643Z,99.90
2022-10-08T04:16:16.499Z,99.90
2022-10-08T04:18:44.736Z,99.90
2022-10-08T04:21:12.780Z,99.90
2022-10-08T04:23:41.253Z,99.90
2022-10-08T04:26:09.521Z,99.90
2022-10-08T04:28:39.427Z,99.90
2022-10-08T04:31:10.865Z,99.90
2022-10-08T04:33:38.448Z,99.90
2022-10-08T04:36:09.705Z,99.90
2022-10-08T04:38:37.199Z,99.90
2022-10-08T04:41:08.187Z,99.90
2022-10-08T04:43:36.082Z,99.90
2022-10-08T04:46:04.143Z,99.90
2022-10-08T04:48:31.004Z,99.90
2022-10-08T04:51:09.423Z,99.90
2022-10-08T04:53:37.371Z,99.90
2022-10-08T04:56:17.423Z,99.90
2022-10-08T04:58:44.586Z,99.90
2022-10-08T05:01:13.982Z,99.90
2022-10-08T05:03:43.237Z,99.90
2022-10-08T05:06:10.663Z,99.90
2022-10-08T05:08:37.983Z,99.90
2022-10-08T05:11:05.176Z,99.90
2022-10-08T05:13:32.063Z,99.90
2022-10-08T05:16:08.140Z,99.90
2022-10-08T05:18:36.318Z,99.90
2022-10-08T05:21:10.394Z,99.90
2022-10-08T05:23:38.299Z,99.90
2022-10-08T05:26:57.529Z,99.90
2022-10-08T05:29:25.530Z,99.90
2022-10-08T05:31:52.343Z,99.90
2022-10-08T05:34:19.164Z,99.90
2022-10-08T05:36:46.296Z,99.90
2022-10-08T05:39:13.370Z,99.90
2022-10-08T05:41:41.300Z,99.90
2022-10-08T05:44:09.708Z,99.90
2022-10-08T05:46:37.767Z,99.90
2022-10-08T05:49:05.786Z,99.90
2022-10-08T05:51:32.661Z,99.90
2022-10-08T05:54:00.482Z,99.90
2022-10-08T05:56:28.019Z,99.90
2022-10-08T05:58:55.148Z,99.90
2022-10-08T06:01:25.613Z,99.90
2022-10-08T06:03:54.817Z,99.90
2022-10-08T06:06:23.044Z,99.90
2022-10-08T06:09:10.315Z,99.80
2022-10-08T06:11:38.111Z,99.90
2022-10-08T06:14:07.219Z,99.60
2022-10-08T06:16:35.458Z,99.60
2022-10-08T06:19:03.236Z,99.80
2022-10-08T06:21:31.100Z,99.90
2022-10-08T06:24:03.441Z,99.90
2022-10-08T06:26:35.990Z,99.90
2022-10-08T06:29:05.837Z,99.90
2022-10-08T06:31:34.131Z,99.60
2022-10-08T06:34:04.111Z,99.60
2022-10-08T06:36:31.811Z,99.60
2022-10-08T06:39:01.207Z,99.50
2022-10-08T06:41:35.410Z,99.40
2022-10-08T06:44:07.567Z,99.30
2022-10-08T06:46:35.111Z,99.30
2022-10-08T06:49:03.574Z,99.20
2022-10-08T06:51:30.570Z,99.30
2022-10-08T06:54:04.337Z,99.50
2022-10-08T06:56:36.044Z,99.30
2022-10-08T06:59:04.522Z,99.10
2022-10-08T07:01:33.852Z,98.80
2022-10-08T07:04:01.297Z,98.00
2022-10-08T07:06:28.687Z,97.70
2022-10-08T07:08:57.853Z,97.30
2022-10-08T07:11:26.130Z,96.90
2022-10-08T07:13:55.193Z,96.50
2022-10-08T07:16:23.831Z,96.30
2022-10-08T07:18:52.091Z,95.90
2022-10-08T07:21:21.383Z,95.30
2022-10-08T07:23:48.319Z,95.20
2022-10-08T07:26:26.819Z,95.20
2022-10-08T07:28:55.351Z,94.90
2022-10-08T07:31:28.253Z,94.40
2022-10-08T07:33:56.357Z,94.30
2022-10-08T07:36:24.774Z,94.00
2022-10-08T07:39:14.477Z,93.90
2022-10-08T07:41:41.944Z,94.00
2022-10-08T07:44:11.190Z,93.70
2022-10-08T07:46:42.600Z,93.50
2022-10-08T07:49:09.821Z,93.40
2022-10-08T07:51:36.791Z,92.90
2022-10-08T07:54:05.558Z,92.80
2022-10-08T07:56:33.432Z,92.80
2022-10-08T07:59:01.475Z,92.70
2022-10-08T08:01:30.045Z,92.80
2022-10-08T08:04:00.979Z,92.60
2022-10-08T08:06:29.055Z,92.50
2022-10-08T08:08:56.006Z,92.30
2022-10-08T08:11:24.468Z,92.50
2022-10-08T08:13:52.291Z,92.30
2022-10-08T08:16:21.956Z,92.10
2022-10-08T08:18:50.602Z,92.20
2022-10-08T08:21:20.391Z,92.20
2022-10-08T08:23:50.205Z,92.40
2022-10-08T08:26:26.225Z,92.20
2022-10-08T08:28:55.280Z,92.30
2022-10-08T08:31:28.326Z,92.20
2022-10-08T08:34:00.859Z,92.10
2022-10-08T08:36:31.189Z,92.10
2022-10-08T08:38:58.801Z,92.20
2022-10-08T08:42:03.175Z,91.90
2022-10-08T08:44:42.908Z,91.70
2022-10-08T08:47:34.099Z,91.40
2022-10-08T08:50:27.797Z,91.40
2022-10-08T08:52:55.906Z,91.40
2022-10-08T08:55:35.062Z,91.30
2022-10-08T08:58:27.954Z,91.00
2022-10-08T09:00:59.675Z,90.90
2022-10-08T09:03:48.176Z,90.90
2022-10-08T09:06:19.896Z,90.70
2022-10-08T09:09:02.217Z,90.20
2022-10-08T09:11:30.187Z,90.30
2022-10-08T09:14:03.939Z,90.10
2022-10-08T09:16:30.743Z,89.50
2022-10-08T09:18:57.731Z,89.20
2022-10-08T09:21:29.003Z,86.80
2022-10-08T09:23:55.986Z,88.10
2022-10-08T09:26:25.153Z,88.10
2022-10-08T09:28:56.369Z,88.20
2022-10-08T09:31:25.701Z,86.90
2022-10-08T09:34:01.442Z,86.60
2022-10-08T09:36:41.884Z,85.50
2022-10-08T09:39:19.490Z,86.50
2022-10-08T09:42:03.562Z,84.00
2022-10-08T09:44:43.404Z,83.00
2022-10-08T09:47:16.218Z,83.50
2022-10-08T09:49:43.965Z,83.60
2022-10-08T09:52:27.767Z,82.00
2022-10-08T09:54:57.307Z,78.90
2022-10-08T09:57:24.495Z,81.00
2022-10-08T09:59:58.294Z,81.80
2022-10-08T10:02:35.667Z,82.10
2022-10-08T10:05:06.445Z,82.20
2022-10-08T10:07:42.942Z,81.40
2022-10-08T10:10:15.183Z,79.80
2022-10-08T10:12:43.800Z,80.10
2022-10-08T10:15:20.957Z,77.20
2022-10-08T10:18:01.518Z,73.60
2022-10-08T10:20:41.579Z,73.00
2022-10-08T10:23:19.879Z,72.80
2022-10-08T10:25:50.105Z,72.00
2022-10-08T10:28:43.367Z,70.50
2022-10-08T10:31:18.731Z,70.50
2022-10-08T10:33:56.225Z,71.80
2022-10-08T10:36:26.960Z,71.20
2022-10-08T10:39:02.291Z,66.60
2022-10-08T10:41:37.296Z,65.90
2022-10-08T10:44:13.133Z,66.30
2022-10-08T10:46:44.694Z,64.30
2022-10-08T10:49:18.432Z,65.40
2022-10-08T10:52:09.182Z,63.00
2022-10-08T10:54:43.499Z,62.60
2022-10-08T10:57:26.747Z,63.70
2022-10-08T11:00:11.766Z,62.50
2022-10-08T11:02:58.415Z,63.90
2022-10-08T11:05:31.691Z,63.40
2022-10-08T11:08:31.221Z,64.70
2022-10-08T11:11:19.930Z,64.10
2022-10-08T11:14:01.918Z,62.10
2022-10-08T11:17:08.283Z,62.50
2022-10-08T11:19:57.399Z,60.60
2022-10-08T11:22:43.499Z,59.80
2022-10-08T11:25:16.169Z,63.30
2022-10-08T11:27:50.325Z,62.70
2022-10-08T11:30:24.838Z,60.90
2022-10-08T11:32:55.316Z,63.40
2022-10-08T11:35:54.596Z,61.90
2022-10-08T11:38:37.780Z,60.00
2022-10-08T11:41:17.004Z,60.90
2022-10-08T11:44:04.126Z,59.40
2022-10-08T11:46:36.722Z,59.80
2022-10-08T11:49:09.962Z,61.00
2022-10-08T11:51:39.062Z,61.40
2022-10-08T11:54:26.394Z,61.10
2022-10-08T11:57:11.265Z,60.70
2022-10-08T11:59:41.385Z,59.40
2022-10-08T12:02:37.472Z,61.60
2022-10-08T12:05:21.392Z,62.80
2022-10-08T12:07:57.024Z,62.70
2022-10-08T12:10:33.954Z,63.10
2022-10-08T12:13:03.151Z,62.70
2022-10-08T12:15:33.258Z,63.10
2022-10-08T12:18:02.471Z,57.90
2022-10-08T12:20:35.235Z,60.20
2022-10-08T12:23:03.421Z,60.90
2022-10-08T12:25:33.285Z,59.30
2022-10-08T12:28:21.905Z,59.30
2022-10-08T12:30:48.795Z,59.40
2022-10-08T12:33:16.587Z,58.60
2022-10-08T12:36:05.516Z,59.60
2022-10-08T12:38:35.161Z,59.90
2022-10-08T12:41:11.032Z,60.10
2022-10-08T12:43:52.037Z,60.60
2022-10-08T12:46:50.102Z,59.80
2022-10-08T12:49:29.301Z,60.30
2022-10-08T12:52:12.761Z,59.40
2022-10-08T12:54:46.477Z,59.30
2022-10-08T12:57:18.007Z,59.20
2022-10-08T12:59:46.486Z,56.60
2022-10-08T13:02:37.174Z,57.90
2022-10-08T13:05:27.470Z,58.00
2022-10-08T13:07:54.786Z,57.90
2022-10-08T13:10:28.822Z,56.90
2022-10-08T13:13:05.058Z,56.60
2022-10-08T13:15:34.339Z,56.00
2022-10-08T13:18:13.258Z,55.50
2022-10-08T13:20:54.694Z,55.20
2022-10-08T13:23:26.661Z,55.10
2022-10-08T13:25:53.538Z,55.60
2022-10-08T13:28:41.845Z,54.30
2022-10-08T13:31:23.554Z,53.40
2022-10-08T13:33:50.871Z,54.10
2022-10-08T13:36:22.874Z,53.90
2022-10-08T13:38:50.239Z,54.50
2022-10-08T13:41:25.272Z,53.60
2022-10-08T13:43:52.292Z,54.10
2022-10-08T13:46:19.146Z,53.40
2022-10-08T13:48:46.182Z,53.50
2022-10-08T13:51:13.117Z,53.10
2022-10-08T13:53:42.222Z,53.00
2022-10-08T13:56:09.307Z,53.80
2022-10-08T13:58:36.141Z,54.00
2022-10-08T14:01:03.061Z,52.70
2022-10-08T14:03:29.920Z,52.10
2022-10-08T14:05:57.810Z,52.50
2022-10-08T14:08:27.442Z,52.70
2022-10-08T14:10:58.021Z,52.20
2022-10-08T14:13:25.620Z,52.20
2022-10-08T14:15:52.626Z,51.80
2022-10-08T14:18:19.540Z,52.40
2022-10-08T14:20:48.902Z,51.90
2022-10-08T14:23:15.685Z,51.80
2022-10-08T14:25:42.638Z,51.30
2022-10-08T14:28:09.533Z,50.10
2022-10-08T14:30:36.570Z,50.70
2022-10-08T14:33:07.643Z,51.10
2022-10-08T14:35:37.747Z,51.10
2022-10-08T14:38:04.657Z,50.60
2022-10-08T14:40:31.742Z,50.30
2022-10-08T14:42:58.869Z,50.40
2022-10-08T14:45:25.922Z,50.80
2022-10-08T14:47:52.815Z,50.50
2022-10-08T14:50:19.793Z,50.20
2022-10-08T14:52:47.281Z,50.00
2022-10-08T14:55:14.758Z,49.40
2022-10-08T14:57:41.710Z,49.70
2022-10-08T15:00:08.914Z,50.80
2022-10-08T15:02:35.887Z,50.70
2022-10-08T15:05:02.803Z,50.40
2022-10-08T15:07:30.727Z,50.60
2022-10-08T15:09:57.552Z,51.20
2022-10-08T15:12:24.466Z,50.80
2022-10-08T15:14:51.286Z,51.90
2022-10-08T15:17:18.193Z,51.60
2022-10-08T15:19:45.096Z,51.20
2022-10-08T15:22:12.880Z,50.90
2022-10-08T15:24:39.791Z,51.90
2022-10-08T15:27:06.781Z,51.10
2022-10-08T15:29:33.775Z,49.30
2022-10-08T15:32:00.734Z,51.00
2022-10-08T15:34:27.797Z,50.00
2022-10-08T15:36:55.886Z,49.80
2022-10-08T15:39:22.934Z,50.20
2022-10-08T15:41:51.728Z,50.30
2022-10-08T15:44:23.688Z,51.50
2022-10-08T15:47:06.203Z,51.40
2022-10-08T15:49:41.992Z,51.60
2022-10-08T15:52:11.988Z,51.90
2022-10-08T15:54:40.008Z,51.50
2022-10-08T15:57:08.606Z,52.70
2022-10-08T15:59:35.781Z,52.10
2022-10-08T16:02:04.596Z,52.40
2022-10-08T16:04:31.628Z,53.60
2022-10-08T16:06:58.513Z,52.20
2022-10-08T16:09:25.474Z,53.40
2022-10-08T16:11:52.407Z,53.60
2022-10-08T16:14:22.635Z,54.10
2022-10-08T16:16:50.260Z,54.20
2022-10-08T16:19:19.742Z,55.70
2022-10-08T16:21:48.585Z,55.30
2022-10-08T16:24:15.741Z,54.40
2022-10-08T16:26:43.458Z,54.80
2022-10-08T16:29:13.088Z,55.10
2022-10-08T16:31:41.519Z,56.70
2022-10-08T16:34:14.025Z,55.30
2022-10-08T16:36:41.634Z,54.40
2022-10-08T16:39:10.486Z,55.90
2022-10-08T16:41:38.106Z,56.70
2022-10-08T16:44:12.017Z,57.10
2022-10-08T16:46:42.233Z,58.10
2022-10-08T16:49:24.126Z,57.70
2022-10-08T16:51:54.348Z,59.00
2022-10-08T16:54:21.292Z,59.00
2022-10-08T16:56:48.190Z,59.00
2022-10-08T16:59:19.054Z,58.20
2022-10-08T17:01:48.474Z,57.80
2022-10-08T17:04:15.911Z,57.70
2022-10-08T17:06:43.370Z,59.20
2022-10-08T17:09:11.563Z,58.90
2022-10-08T17:11:38.805Z,59.10
2022-10-08T17:14:07.774Z,59.80
2022-10-08T17:16:36.156Z,60.70
2022-10-08T17:19:03.761Z,60.50
2022-10-08T17:21:32.827Z,60.40
2022-10-08T17:24:01.622Z,61.10
2022-10-08T17:26:29.406Z,61.60
2022-10-08T17:28:57.200Z,62.50
2022-10-08T17:31:27.103Z,62.60
2022-10-08T17:33:53.915Z,61.50
2022-10-08T17:36:23.023Z,63.00
2022-10-08T17:38:52.843Z,64.20
2022-10-08T17:41:31.006Z,65.80
2022-10-08T17:44:00.776Z,65.50
2022-10-08T17:46:30.367Z,65.50
2022-10-08T17:48:57.324Z,65.00
2022-10-08T17:51:26.393Z,65.10
2022-10-08T17:53:55.515Z,65.20
2022-10-08T17:56:23.087Z,65.80
2022-10-08T17:58:50.319Z,67.60
2022-10-08T18:01:20.612Z,66.00
2022-10-08T18:04:00.040Z,65.60
2022-10-08T18:06:27.509Z,65.70
2022-10-08T18:08:55.579Z,66.10
2022-10-08T18:11:22.655Z,65.40
2022-10-08T18:13:49.644Z,64.30
2022-10-08T18:16:18.988Z,65.30
2022-10-08T18:18:46.172Z,65.00
2022-10-08T18:21:15.279Z,66.20
2022-10-08T18:23:43.021Z,65.30
2022-10-08T18:26:11.387Z,65.50
2022-10-08T18:28:38.466Z,65.60
2022-10-08T18:31:07.311Z,66.00
2022-10-08T18:33:35.530Z,67.30
2022-10-08T18:36:15.860Z,66.50
2022-10-08T18:38:44.574Z,66.80
2022-10-08T18:41:15.327Z,68.20
2022-10-08T18:43:43.051Z,66.60
2022-10-08T18:46:10.072Z,66.50
2022-10-08T18:48:37.257Z,66.50
2022-10-08T18:51:09.018Z,67.00
2022-10-08T18:53:37.944Z,67.30
2022-10-08T18:56:07.422Z,67.70
2022-10-08T18:58:34.955Z,68.50
2022-10-08T19:01:02.081Z,67.50
2022-10-08T19:03:28.955Z,66.70
2022-10-08T19:05:55.762Z,66.70
2022-10-08T19:08:22.634Z,67.00
2022-10-08T19:10:49.563Z,66.90
2022-10-08T19:13:16.445Z,66.60
2022-10-08T19:15:43.356Z,66.80
2022-10-08T19:18:10.259Z,67.70
2022-10-08T19:20:37.456Z,66.70
2022-10-08T19:23:06.257Z,67.70
2022-10-08T19:25:35.282Z,68.70
2022-10-08T19:28:02.340Z,68.70
2022-10-08T19:30:34.082Z,68.70
2022-10-08T19:33:01.286Z,68.90
2022-10-08T19:35:28.479Z,69.70
2022-10-08T19:37:55.347Z,69.10
2022-10-08T19:40:22.322Z,69.20
2022-10-08T19:42:49.380Z,71.00
2022-10-08T19:45:16.812Z,70.60
2022-10-08T19:47:43.684Z,71.10
2022-10-08T19:50:10.684Z,69.60
2022-10-08T19:52:37.533Z,68.90
2022-10-08T19:55:04.824Z,70.40
2022-10-08T19:57:31.791Z,70.60
2022-10-08T19:59:58.643Z,70.30
2022-10-08T20:02:25.638Z,71.10
2022-10-08T20:04:52.504Z,68.70
2022-10-08T20:07:19.816Z,69.20
2022-10-08T20:09:46.986Z,69.20
2022-10-08T20:12:13.856Z,70.40
2022-10-08T20:14:40.636Z,70.20
2022-10-08T20:17:07.666Z,71.30
2022-10-08T20:19:34.505Z,71.00
2022-10-08T20:22:01.362Z,70.40
2022-10-08T20:24:28.183Z,71.00
2022-10-08T20:26:55.076Z,72.60
2022-10-08T20:29:26.219Z,73.80
2022-10-08T20:31:55.186Z,73.30
2022-10-08T20:34:28.846Z,73.90
2022-10-08T20:36:56.024Z,74.00
2022-10-08T20:39:23.014Z,74.60
2022-10-08T20:41:51.787Z,74.70
2022-10-08T20:44:18.923Z,73.70
2022-10-08T20:46:45.789Z,73.90
2022-10-08T20:49:13.501Z,73.50
2022-10-08T20:51:42.065Z,74.90
2022-10-08T20:54:10.955Z,73.30
2022-10-08T20:56:40.297Z,72.90
2022-10-08T20:59:15.123Z,72.70
2022-10-08T21:01:42.177Z,73.00
2022-10-08T21:04:09.324Z,72.60
2022-10-08T21:06:41.539Z,72.30
2022-10-08T21:09:09.356Z,72.40
2022-10-08T21:11:36.878Z,71.90
2022-10-08T21:14:04.660Z,71.80
2022-10-08T21:16:33.922Z,71.60
2022-10-08T21:19:02.936Z,71.80
2022-10-08T21:21:31.201Z,71.80
2022-10-08T21:23:58.809Z,72.20
2022-10-08T21:26:28.514Z,72.80
2022-10-08T21:29:00.143Z,73.00
2022-10-08T21:31:28.978Z,72.30
2022-10-08T21:33:56.768Z,72.20
2022-10-08T21:36:26.475Z,72.20
2022-10-08T21:38:53.674Z,72.00
2022-10-08T21:41:23.458Z,71.90
2022-10-08T21:43:56.831Z,73.30
2022-10-08T21:46:26.257Z,72.90
2022-10-08T21:48:58.392Z,73.60
2022-10-08T21:51:26.845Z,72.80
2022-10-08T21:53:57.788Z,72.30
2022-10-08T21:56:27.483Z,73.20
2022-10-08T21:58:56.983Z,72.50
2022-10-08T22:01:28.384Z,72.80
2022-10-08T22:03:56.168Z,73.00
2022-10-08T22:06:23.864Z,73.20
2022-10-08T22:08:51.094Z,74.00
2022-10-08T22:11:18.550Z,74.60
2022-10-08T22:13:46.105Z,74.50
2022-10-08T22:16:14.703Z,75.20
2022-10-08T22:18:42.365Z,75.50
2022-10-08T22:21:13.918Z,76.40
2022-10-08T22:23:41.031Z,76.90
2022-10-08T22:26:19.166Z,76.70
2022-10-08T22:28:46.635Z,77.50
2022-10-08T22:31:15.585Z,77.20
2022-10-08T22:33:43.270Z,77.40
2022-10-08T22:36:19.384Z,77.20
2022-10-08T22:38:46.986Z,76.90
2022-10-08T22:41:28.457Z,78.30
2022-10-08T22:43:55.664Z,77.50
2022-10-08T22:46:26.196Z,78.90
2022-10-08T22:49:01.659Z,78.90
2022-10-08T22:51:29.433Z,78.40
2022-10-08T22:53:56.505Z,78.60
2022-10-08T22:56:25.916Z,80.40
2022-10-08T22:58:53.089Z,79.90
2022-10-08T23:01:26.250Z,80.30
2022-10-08T23:03:53.613Z,79.80
2022-10-08T23:06:26.496Z,79.70
2022-10-08T23:09:07.637Z,81.50
2022-10-08T23:11:35.314Z,81.60
2022-10-08T23:14:02.840Z,81.40
2022-10-08T23:16:31.734Z,81.90
2022-10-08T23:19:07.122Z,82.40
2022-10-08T23:21:35.239Z,82.80
2022-10-08T23:24:02.466Z,83.70
2022-10-08T23:26:29.739Z,83.80
2022-10-08T23:28:59.062Z,83.10
2022-10-08T23:31:28.728Z,83.80
2022-10-08T23:33:56.545Z,84.20
2022-10-08T23:36:27.672Z,83.50
2022-10-08T23:38:56.460Z,84.10
2022-10-08T23:41:23.986Z,84.00
2022-10-08T23:43:51.895Z,84.30
2022-10-08T23:46:21.563Z,84.00
2022-10-08T23:48:49.854Z,85.00
2022-10-08T23:51:18.380Z,84.90
2022-10-08T23:53:45.634Z,85.40
2022-10-08T23:56:13.343Z,84.90
2022-10-08T23:58:40.780Z,85.20
